sensor_id;sensor_type;location;lat;lon;timestamp;P1;durP1;ratioP1;P2;durP2;ratioP2
7683;SDS011;3884;48.616;12.872;2022-12-22T00:00:12;93.67;;;41.87;;
7683;SDS011;3884;48.616;12.872;2022-12-22T00:02:57;113.47;;;43.40;;
7683;SDS011;3884;48.616;12.872;2022-12-22T00:05:41;102.37;;;42.37;;
7683;SDS011;3884;48.616;12.872;2022-12-22T00:08:26;110.57;;;44.23;;
7683;SDS011;3884;48.616;12.872;2022-12-22T00:11:11;93.73;;;41.90;;
7683;SDS011;3884;48.616;12.872;2022-12-22T00:13:56;112.47;;;44.57;;
7683;SDS011;3884;48.616;12.872;2022-12-22T00:16:41;104.77;;;44.60;;
7683;SDS011;3884;48.616;12.872;2022-12-22T00:19:26;106.40;;;45.23;;
7683;SDS011;3884;48.616;12.872;2022-12-22T00:22:17;101.57;;;43.40;;
7683;SDS011;3884;48.616;12.872;2022-12-22T00:25:03;89.83;;;40.27;;
7683;SDS011;3884;48.616;12.872;2022-12-22T00:27:49;92.87;;;43.33;;
7683;SDS011;3884;48.616;12.872;2022-12-22T00:30:34;95.73;;;41.67;;
7683;SDS011;3884;48.616;12.872;2022-12-22T00:33:19;97.03;;;42.73;;
7683;SDS011;3884;48.616;12.872;2022-12-22T00:36:05;88.80;;;40.23;;
7683;SDS011;3884;48.616;12.872;2022-12-22T00:38:52;90.77;;;40.13;;
7683;SDS011;3884;48.616;12.872;2022-12-22T00:41:37;102.50;;;41.70;;
7683;SDS011;3884;48.616;12.872;2022-12-22T00:44:22;91.70;;;39.63;;
7683;SDS011;3884;48.616;12.872;2022-12-22T00:47:07;88.77;;;40.10;;
7683;SDS011;3884;48.616;12.872;2022-12-22T00:49:55;91.20;;;40.83;;
7683;SDS011;3884;48.616;12.872;2022-12-22T00:52:40;94.23;;;41.80;;
7683;SDS011;3884;48.616;12.872;2022-12-22T00:55:25;80.30;;;37.33;;
7683;SDS011;3884;48.616;12.872;2022-12-22T00:58:14;117.73;;;42.83;;
7683;SDS011;3884;48.616;12.872;2022-12-22T01:01:03;89.27;;;39.17;;
7683;SDS011;3884;48.616;12.872;2022-12-22T01:03:47;93.13;;;40.50;;
7683;SDS011;3884;48.616;12.872;2022-12-22T01:06:33;88.00;;;38.80;;
7683;SDS011;3884;48.616;12.872;2022-12-22T01:09:18;94.40;;;39.80;;
7683;SDS011;3884;48.616;12.872;2022-12-22T01:12:05;98.23;;;41.97;;
7683;SDS011;3884;48.616;12.872;2022-12-22T01:14:53;96.10;;;40.47;;
7683;SDS011;3884;48.616;12.872;2022-12-22T01:17:39;75.77;;;36.90;;
7683;SDS011;3884;48.616;12.872;2022-12-22T01:20:24;97.50;;;40.03;;
7683;SDS011;3884;48.616;12.872;2022-12-22T01:23:08;83.40;;;38.83;;
7683;SDS011;3884;48.616;12.872;2022-12-22T01:25:53;92.80;;;40.03;;
7683;SDS011;3884;48.616;12.872;2022-12-22T01:28:38;86.83;;;39.83;;
7683;SDS011;3884;48.616;12.872;2022-12-22T01:31:24;98.13;;;41.63;;
7683;SDS011;3884;48.616;12.872;2022-12-22T01:34:12;91.23;;;40.47;;
7683;SDS011;3884;48.616;12.872;2022-12-22T01:36:57;102.30;;;42.80;;
7683;SDS011;3884;48.616;12.872;2022-12-22T01:39:42;95.77;;;41.27;;
7683;SDS011;3884;48.616;12.872;2022-12-22T01:42:26;99.50;;;41.53;;
7683;SDS011;3884;48.616;12.872;2022-12-22T01:45:14;89.33;;;39.83;;
7683;SDS011;3884;48.616;12.872;2022-12-22T01:48:05;99.50;;;40.50;;
7683;SDS011;3884;48.616;12.872;2022-12-22T01:50:54;96.43;;;41.13;;
7683;SDS011;3884;48.616;12.872;2022-12-22T01:53:40;92.73;;;40.63;;
7683;SDS011;3884;48.616;12.872;2022-12-22T01:56:24;107.63;;;41.83;;
7683;SDS011;3884;48.616;12.872;2022-12-22T01:59:10;117.67;;;43.37;;
7683;SDS011;3884;48.616;12.872;2022-12-22T02:01:55;89.33;;;39.47;;
7683;SDS011;3884;48.616;12.872;2022-12-22T02:04:41;86.70;;;39.93;;
7683;SDS011;3884;48.616;12.872;2022-12-22T02:07:35;90.00;;;38.70;;
7683;SDS011;3884;48.616;12.872;2022-12-22T02:10:34;110.50;;;43.27;;
7683;SDS011;3884;48.616;12.872;2022-12-22T02:13:32;130.23;;;44.83;;
7683;SDS011;3884;48.616;12.872;2022-12-22T02:16:26;96.43;;;41.97;;
7683;SDS011;3884;48.616;12.872;2022-12-22T02:19:17;102.37;;;42.63;;
7683;SDS011;3884;48.616;12.872;2022-12-22T02:22:13;104.90;;;43.77;;
7683;SDS011;3884;48.616;12.872;2022-12-22T02:25:06;93.47;;;41.10;;
7683;SDS011;3884;48.616;12.872;2022-12-22T02:27:59;101.47;;;41.70;;
7683;SDS011;3884;48.616;12.872;2022-12-22T02:30:46;111.77;;;44.30;;
7683;SDS011;3884;48.616;12.872;2022-12-22T02:33:32;119.50;;;46.30;;
7683;SDS011;3884;48.616;12.872;2022-12-22T02:36:17;115.63;;;46.53;;
7683;SDS011;3884;48.616;12.872;2022-12-22T02:39:09;106.50;;;43.57;;
7683;SDS011;3884;48.616;12.872;2022-12-22T02:42:00;106.07;;;45.77;;
7683;SDS011;3884;48.616;12.872;2022-12-22T02:44:55;116.93;;;44.80;;
7683;SDS011;3884;48.616;12.872;2022-12-22T02:47:49;113.70;;;44.80;;
7683;SDS011;3884;48.616;12.872;2022-12-22T02:50:41;130.03;;;46.50;;
7683;SDS011;3884;48.616;12.872;2022-12-22T02:53:28;125.20;;;48.37;;
7683;SDS011;3884;48.616;12.872;2022-12-22T02:56:14;127.67;;;48.00;;
7683;SDS011;3884;48.616;12.872;2022-12-22T02:58:59;102.93;;;45.77;;
7683;SDS011;3884;48.616;12.872;2022-12-22T03:01:45;103.27;;;44.53;;
7683;SDS011;3884;48.616;12.872;2022-12-22T03:04:30;118.53;;;44.93;;
7683;SDS011;3884;48.616;12.872;2022-12-22T03:07:14;99.17;;;41.97;;
7683;SDS011;3884;48.616;12.872;2022-12-22T03:09:59;111.60;;;44.83;;
7683;SDS011;3884;48.616;12.872;2022-12-22T03:12:43;99.37;;;43.70;;
7683;SDS011;3884;48.616;12.872;2022-12-22T03:15:27;107.10;;;44.53;;
7683;SDS011;3884;48.616;12.872;2022-12-22T03:18:13;99.70;;;42.43;;
7683;SDS011;3884;48.616;12.872;2022-12-22T03:20:57;99.90;;;42.63;;
7683;SDS011;3884;48.616;12.872;2022-12-22T03:23:42;93.87;;;41.63;;
7683;SDS011;3884;48.616;12.872;2022-12-22T03:26:27;107.23;;;44.27;;
7683;SDS011;3884;48.616;12.872;2022-12-22T03:28:54;106.70;;;44.17;;
7683;SDS011;3884;48.616;12.872;2022-12-22T03:31:21;118.60;;;45.40;;
7683;SDS011;3884;48.616;12.872;2022-12-22T03:33:50;109.03;;;43.10;;
7683;SDS011;3884;48.616;12.872;2022-12-22T03:36:17;104.87;;;45.83;;
7683;SDS011;3884;48.616;12.872;2022-12-22T03:38:44;107.47;;;44.67;;
7683;SDS011;3884;48.616;12.872;2022-12-22T03:41:11;113.23;;;44.30;;
7683;SDS011;3884;48.616;12.872;2022-12-22T03:43:58;123.90;;;53.17;;
7683;SDS011;3884;48.616;12.872;2022-12-22T03:46:43;107.50;;;45.63;;
7683;SDS011;3884;48.616;12.872;2022-12-22T03:49:11;113.03;;;45.90;;
7683;SDS011;3884;48.616;12.872;2022-12-22T03:51:39;108.60;;;44.37;;
7683;SDS011;3884;48.616;12.872;2022-12-22T03:54:08;115.47;;;46.70;;
7683;SDS011;3884;48.616;12.872;2022-12-22T03:56:35;118.07;;;48.40;;
7683;SDS011;3884;48.616;12.872;2022-12-22T03:59:03;116.50;;;48.40;;
7683;SDS011;3884;48.616;12.872;2022-12-22T04:01:30;104.30;;;45.63;;
7683;SDS011;3884;48.616;12.872;2022-12-22T04:03:57;120.50;;;46.10;;
7683;SDS011;3884;48.616;12.872;2022-12-22T04:06:26;111.23;;;45.90;;
7683;SDS011;3884;48.616;12.872;2022-12-22T04:08:53;118.60;;;47.13;;
7683;SDS011;3884;48.616;12.872;2022-12-22T04:11:20;109.80;;;45.67;;
7683;SDS011;3884;48.616;12.872;2022-12-22T04:14:04;106.23;;;47.00;;
7683;SDS011;3884;48.616;12.872;2022-12-22T04:16:31;100.60;;;45.03;;
7683;SDS011;3884;48.616;12.872;2022-12-22T04:18:59;106.80;;;45.33;;
7683;SDS011;3884;48.616;12.872;2022-12-22T04:21:27;103.43;;;44.43;;
7683;SDS011;3884;48.616;12.872;2022-12-22T04:23:54;102.10;;;46.47;;
7683;SDS011;3884;48.616;12.872;2022-12-22T04:26:22;101.90;;;44.80;;
7683;SDS011;3884;48.616;12.872;2022-12-22T04:28:50;104.10;;;45.73;;
7683;SDS011;3884;48.616;12.872;2022-12-22T04:31:17;100.27;;;44.53;;
7683;SDS011;3884;48.616;12.872;2022-12-22T04:33:45;104.43;;;45.30;;
7683;SDS011;3884;48.616;12.872;2022-12-22T04:36:12;95.67;;;42.83;;
7683;SDS011;3884;48.616;12.872;2022-12-22T04:38:41;104.60;;;44.63;;
7683;SDS011;3884;48.616;12.872;2022-12-22T04:41:08;92.47;;;41.53;;
7683;SDS011;3884;48.616;12.872;2022-12-22T04:43:36;95.33;;;41.33;;
7683;SDS011;3884;48.616;12.872;2022-12-22T04:46:04;103.03;;;42.50;;
7683;SDS011;3884;48.616;12.872;2022-12-22T04:48:31;109.43;;;43.63;;
7683;SDS011;3884;48.616;12.872;2022-12-22T04:50:59;103.10;;;42.40;;
7683;SDS011;3884;48.616;12.872;2022-12-22T04:53:27;96.23;;;43.03;;
7683;SDS011;3884;48.616;12.872;2022-12-22T04:55:57;90.37;;;40.40;;
7683;SDS011;3884;48.616;12.872;2022-12-22T04:58:26;82.03;;;36.77;;
7683;SDS011;3884;48.616;12.872;2022-12-22T05:00:53;93.90;;;40.87;;
7683;SDS011;3884;48.616;12.872;2022-12-22T05:03:20;91.33;;;40.30;;
7683;SDS011;3884;48.616;12.872;2022-12-22T05:05:47;88.60;;;39.93;;
7683;SDS011;3884;48.616;12.872;2022-12-22T05:08:14;79.33;;;38.13;;
7683;SDS011;3884;48.616;12.872;2022-12-22T05:10:41;85.27;;;39.50;;
7683;SDS011;3884;48.616;12.872;2022-12-22T05:13:10;84.57;;;38.13;;
7683;SDS011;3884;48.616;12.872;2022-12-22T05:15:37;89.10;;;38.17;;
7683;SDS011;3884;48.616;12.872;2022-12-22T05:18:04;81.80;;;37.40;;
7683;SDS011;3884;48.616;12.872;2022-12-22T05:20:31;107.40;;;41.07;;
7683;SDS011;3884;48.616;12.872;2022-12-22T05:23:00;79.50;;;37.00;;
7683;SDS011;3884;48.616;12.872;2022-12-22T05:25:27;78.40;;;37.40;;
7683;SDS011;3884;48.616;12.872;2022-12-22T05:27:54;92.30;;;41.17;;
7683;SDS011;3884;48.616;12.872;2022-12-22T05:30:22;89.77;;;39.97;;
7683;SDS011;3884;48.616;12.872;2022-12-22T05:32:49;96.87;;;43.13;;
7683;SDS011;3884;48.616;12.872;2022-12-22T05:35:16;91.67;;;43.23;;
7683;SDS011;3884;48.616;12.872;2022-12-22T05:37:43;91.40;;;40.30;;
7683;SDS011;3884;48.616;12.872;2022-12-22T05:40:10;91.60;;;38.27;;
7683;SDS011;3884;48.616;12.872;2022-12-22T05:42:38;85.70;;;39.67;;
7683;SDS011;3884;48.616;12.872;2022-12-22T05:45:06;78.50;;;37.90;;
7683;SDS011;3884;48.616;12.872;2022-12-22T05:47:39;92.23;;;39.27;;
7683;SDS011;3884;48.616;12.872;2022-12-22T05:50:07;83.43;;;37.90;;
7683;SDS011;3884;48.616;12.872;2022-12-22T05:52:35;92.17;;;40.03;;
7683;SDS011;3884;48.616;12.872;2022-12-22T05:55:02;87.37;;;38.40;;
7683;SDS011;3884;48.616;12.872;2022-12-22T05:57:30;91.43;;;40.13;;
7683;SDS011;3884;48.616;12.872;2022-12-22T05:59:57;73.97;;;37.07;;
7683;SDS011;3884;48.616;12.872;2022-12-22T06:02:24;87.20;;;38.03;;
7683;SDS011;3884;48.616;12.872;2022-12-22T06:04:53;97.20;;;40.73;;
7683;SDS011;3884;48.616;12.872;2022-12-22T06:07:21;101.17;;;51.53;;
7683;SDS011;3884;48.616;12.872;2022-12-22T06:09:48;83.30;;;43.27;;
7683;SDS011;3884;48.616;12.872;2022-12-22T06:12:15;82.40;;;44.20;;
7683;SDS011;3884;48.616;12.872;2022-12-22T06:14:42;101.93;;;49.63;;
7683;SDS011;3884;48.616;12.872;2022-12-22T06:17:09;84.13;;;42.90;;
7683;SDS011;3884;48.616;12.872;2022-12-22T06:19:36;94.22;;;43.92;;
7683;SDS011;3884;48.616;12.872;2022-12-22T06:22:05;105.47;;;43.03;;
7683;SDS011;3884;48.616;12.872;2022-12-22T06:24:32;68.47;;;33.27;;
7683;SDS011;3884;48.616;12.872;2022-12-22T06:26:59;85.23;;;37.00;;
7683;SDS011;3884;48.616;12.872;2022-12-22T06:29:26;98.63;;;41.07;;
7683;SDS011;3884;48.616;12.872;2022-12-22T06:31:53;61.13;;;30.73;;
7683;SDS011;3884;48.616;12.872;2022-12-22T06:34:20;44.07;;;23.53;;
7683;SDS011;3884;48.616;12.872;2022-12-22T06:36:47;42.47;;;26.00;;
7683;SDS011;3884;48.616;12.872;2022-12-22T06:39:16;32.23;;;21.10;;
7683;SDS011;3884;48.616;12.872;2022-12-22T06:41:43;21.80;;;16.30;;
7683;SDS011;3884;48.616;12.872;2022-12-22T06:44:27;19.07;;;13.10;;
7683;SDS011;3884;48.616;12.872;2022-12-22T06:46:55;19.13;;;13.40;;
7683;SDS011;3884;48.616;12.872;2022-12-22T06:49:22;18.57;;;13.47;;
7683;SDS011;3884;48.616;12.872;2022-12-22T06:51:49;15.20;;;12.10;;
7683;SDS011;3884;48.616;12.872;2022-12-22T06:54:18;15.97;;;11.73;;
7683;SDS011;3884;48.616;12.872;2022-12-22T06:56:45;16.13;;;12.27;;
7683;SDS011;3884;48.616;12.872;2022-12-22T06:59:12;21.93;;;13.63;;
7683;SDS011;3884;48.616;12.872;2022-12-22T07:01:39;16.83;;;13.43;;
7683;SDS011;3884;48.616;12.872;2022-12-22T07:04:07;16.13;;;12.13;;
7683;SDS011;3884;48.616;12.872;2022-12-22T07:06:34;15.60;;;11.97;;
7683;SDS011;3884;48.616;12.872;2022-12-22T07:09:02;14.87;;;10.63;;
7683;SDS011;3884;48.616;12.872;2022-12-22T07:11:30;15.70;;;11.07;;
7683;SDS011;3884;48.616;12.872;2022-12-22T07:13:57;25.33;;;19.03;;
7683;SDS011;3884;48.616;12.872;2022-12-22T07:16:24;36.53;;;26.93;;
7683;SDS011;3884;48.616;12.872;2022-12-22T07:18:51;24.60;;;18.37;;
7683;SDS011;3884;48.616;12.872;2022-12-22T07:21:18;27.93;;;22.17;;
7683;SDS011;3884;48.616;12.872;2022-12-22T07:23:45;29.27;;;19.33;;
7683;SDS011;3884;48.616;12.872;2022-12-22T07:26:14;40.37;;;22.13;;
7683;SDS011;3884;48.616;12.872;2022-12-22T07:28:43;68.50;;;28.50;;
7683;SDS011;3884;48.616;12.872;2022-12-22T07:31:10;64.77;;;30.90;;
7683;SDS011;3884;48.616;12.872;2022-12-22T07:33:37;49.90;;;26.97;;
7683;SDS011;3884;48.616;12.872;2022-12-22T07:36:05;79.10;;;38.03;;
7683;SDS011;3884;48.616;12.872;2022-12-22T07:38:36;83.37;;;36.50;;
7683;SDS011;3884;48.616;12.872;2022-12-22T07:41:04;68.87;;;32.00;;
7683;SDS011;3884;48.616;12.872;2022-12-22T07:43:54;108.70;;;46.87;;
7683;SDS011;3884;48.616;12.872;2022-12-22T07:46:22;70.37;;;36.00;;
7683;SDS011;3884;48.616;12.872;2022-12-22T07:48:51;54.90;;;29.97;;
7683;SDS011;3884;48.616;12.872;2022-12-22T07:51:36;83.67;;;44.33;;
7683;SDS011;3884;48.616;12.872;2022-12-22T07:54:05;61.33;;;34.90;;
7683;SDS011;3884;48.616;12.872;2022-12-22T07:56:33;51.60;;;28.10;;
7683;SDS011;3884;48.616;12.872;2022-12-22T07:59:02;62.90;;;33.20;;
7683;SDS011;3884;48.616;12.872;2022-12-22T08:01:29;46.30;;;27.20;;
7683;SDS011;3884;48.616;12.872;2022-12-22T08:03:56;44.37;;;25.60;;
7683;SDS011;3884;48.616;12.872;2022-12-22T08:06:23;56.67;;;28.47;;
7683;SDS011;3884;48.616;12.872;2022-12-22T08:08:51;71.53;;;32.20;;
7683;SDS011;3884;48.616;12.872;2022-12-22T08:11:18;64.67;;;34.90;;
7683;SDS011;3884;48.616;12.872;2022-12-22T08:13:45;62.27;;;31.43;;
7683;SDS011;3884;48.616;12.872;2022-12-22T08:16:15;64.83;;;31.17;;
7683;SDS011;3884;48.616;12.872;2022-12-22T08:18:43;63.37;;;32.90;;
7683;SDS011;3884;48.616;12.872;2022-12-22T08:21:10;46.13;;;26.63;;
7683;SDS011;3884;48.616;12.872;2022-12-22T08:23:38;45.13;;;27.07;;
7683;SDS011;3884;48.616;12.872;2022-12-22T08:26:06;47.30;;;26.30;;
7683;SDS011;3884;48.616;12.872;2022-12-22T08:28:37;55.50;;;29.03;;
7683;SDS011;3884;48.616;12.872;2022-12-22T08:31:09;46.70;;;24.43;;
7683;SDS011;3884;48.616;12.872;2022-12-22T08:33:38;64.33;;;35.60;;
7683;SDS011;3884;48.616;12.872;2022-12-22T08:36:05;50.27;;;28.40;;
7683;SDS011;3884;48.616;12.872;2022-12-22T08:38:34;49.97;;;26.10;;
7683;SDS011;3884;48.616;12.872;2022-12-22T08:41:04;78.67;;;36.23;;
7683;SDS011;3884;48.616;12.872;2022-12-22T08:43:33;365.57;;;177.80;;
7683;SDS011;3884;48.616;12.872;2022-12-22T08:46:00;102.47;;;57.27;;
7683;SDS011;3884;48.616;12.872;2022-12-22T08:48:27;47.93;;;30.80;;
7683;SDS011;3884;48.616;12.872;2022-12-22T08:50:55;11.53;;;9.13;;
7683;SDS011;3884;48.616;12.872;2022-12-22T08:53:22;13.60;;;8.23;;
7683;SDS011;3884;48.616;12.872;2022-12-22T08:55:50;11.50;;;7.63;;
7683;SDS011;3884;48.616;12.872;2022-12-22T08:58:18;8.33;;;7.03;;
7683;SDS011;3884;48.616;12.872;2022-12-22T09:00:45;8.50;;;6.43;;
7683;SDS011;3884;48.616;12.872;2022-12-22T09:03:12;7.20;;;6.33;;
7683;SDS011;3884;48.616;12.872;2022-12-22T09:05:40;9.17;;;5.47;;
7683;SDS011;3884;48.616;12.872;2022-12-22T09:08:08;6.03;;;5.00;;
7683;SDS011;3884;48.616;12.872;2022-12-22T09:10:35;6.50;;;4.67;;
7683;SDS011;3884;48.616;12.872;2022-12-22T09:13:02;6.53;;;4.17;;
7683;SDS011;3884;48.616;12.872;2022-12-22T09:15:29;6.30;;;4.40;;
7683;SDS011;3884;48.616;12.872;2022-12-22T09:17:56;6.83;;;4.20;;
7683;SDS011;3884;48.616;12.872;2022-12-22T09:20:23;4.97;;;3.60;;
7683;SDS011;3884;48.616;12.872;2022-12-22T09:22:50;5.47;;;3.97;;
7683;SDS011;3884;48.616;12.872;2022-12-22T09:25:19;4.37;;;3.90;;
7683;SDS011;3884;48.616;12.872;2022-12-22T09:27:46;5.20;;;3.73;;
7683;SDS011;3884;48.616;12.872;2022-12-22T09:30:13;4.10;;;3.43;;
7683;SDS011;3884;48.616;12.872;2022-12-22T09:32:40;4.40;;;3.20;;
7683;SDS011;3884;48.616;12.872;2022-12-22T09:35:07;5.83;;;3.23;;
7683;SDS011;3884;48.616;12.872;2022-12-22T09:37:34;4.63;;;3.40;;
7683;SDS011;3884;48.616;12.872;2022-12-22T09:40:01;6.27;;;3.67;;
7683;SDS011;3884;48.616;12.872;2022-12-22T09:42:30;6.93;;;3.80;;
7683;SDS011;3884;48.616;12.872;2022-12-22T09:45:00;6.13;;;3.70;;
7683;SDS011;3884;48.616;12.872;2022-12-22T09:47:30;4.33;;;2.90;;
7683;SDS011;3884;48.616;12.872;2022-12-22T09:50:01;4.57;;;3.00;;
7683;SDS011;3884;48.616;12.872;2022-12-22T09:52:39;5.83;;;3.10;;
7683;SDS011;3884;48.616;12.872;2022-12-22T09:55:12;4.47;;;3.13;;
7683;SDS011;3884;48.616;12.872;2022-12-22T09:57:46;5.77;;;3.00;;
7683;SDS011;3884;48.616;12.872;2022-12-22T10:00:14;5.70;;;2.70;;
7683;SDS011;3884;48.616;12.872;2022-12-22T10:02:46;5.57;;;2.67;;
7683;SDS011;3884;48.616;12.872;2022-12-22T10:05:23;5.57;;;3.30;;
7683;SDS011;3884;48.616;12.872;2022-12-22T10:07:57;7.27;;;3.23;;
7683;SDS011;3884;48.616;12.872;2022-12-22T10:10:27;4.40;;;3.27;;
7683;SDS011;3884;48.616;12.872;2022-12-22T10:13:00;33.10;;;14.00;;
7683;SDS011;3884;48.616;12.872;2022-12-22T10:15:32;10.63;;;3.80;;
7683;SDS011;3884;48.616;12.872;2022-12-22T10:18:07;7.33;;;4.40;;
7683;SDS011;3884;48.616;12.872;2022-12-22T10:20:36;4.47;;;2.50;;
7683;SDS011;3884;48.616;12.872;2022-12-22T10:23:14;3.80;;;2.80;;
7683;SDS011;3884;48.616;12.872;2022-12-22T10:25:45;3.50;;;2.63;;
7683;SDS011;3884;48.616;12.872;2022-12-22T10:28:32;3.60;;;2.60;;
7683;SDS011;3884;48.616;12.872;2022-12-22T10:31:09;4.40;;;2.50;;
7683;SDS011;3884;48.616;12.872;2022-12-22T10:33:39;2.27;;;1.93;;
7683;SDS011;3884;48.616;12.872;2022-12-22T10:36:07;4.53;;;2.30;;
7683;SDS011;3884;48.616;12.872;2022-12-22T10:38:35;3.97;;;2.07;;
7683;SDS011;3884;48.616;12.872;2022-12-22T10:41:13;3.63;;;2.00;;
7683;SDS011;3884;48.616;12.872;2022-12-22T10:43:46;3.53;;;1.80;;
7683;SDS011;3884;48.616;12.872;2022-12-22T10:46:15;3.37;;;1.90;;
7683;SDS011;3884;48.616;12.872;2022-12-22T10:48:43;4.60;;;1.70;;
7683;SDS011;3884;48.616;12.872;2022-12-22T10:51:10;5.10;;;2.03;;
7683;SDS011;3884;48.616;12.872;2022-12-22T10:53:39;3.67;;;2.07;;
7683;SDS011;3884;48.616;12.872;2022-12-22T10:56:17;2.87;;;1.33;;
7683;SDS011;3884;48.616;12.872;2022-12-22T10:58:49;4.40;;;1.63;;
7683;SDS011;3884;48.616;12.872;2022-12-22T11:01:23;4.73;;;1.50;;
7683;SDS011;3884;48.616;12.872;2022-12-22T11:03:52;3.37;;;1.60;;
7683;SDS011;3884;48.616;12.872;2022-12-22T11:06:19;2.83;;;1.30;;
7683;SDS011;3884;48.616;12.872;2022-12-22T11:08:46;4.00;;;1.30;;
7683;SDS011;3884;48.616;12.872;2022-12-22T11:11:14;3.77;;;1.83;;
7683;SDS011;3884;48.616;12.872;2022-12-22T11:13:53;5.80;;;1.93;;
7683;SDS011;3884;48.616;12.872;2022-12-22T11:16:31;3.90;;;1.90;;
7683;SDS011;3884;48.616;12.872;2022-12-22T11:19:16;19.27;;;9.33;;
7683;SDS011;3884;48.616;12.872;2022-12-22T11:21:56;2.60;;;1.70;;
7683;SDS011;3884;48.616;12.872;2022-12-22T11:24:33;3.83;;;2.10;;
7683;SDS011;3884;48.616;12.872;2022-12-22T11:27:13;3.73;;;1.77;;
7683;SDS011;3884;48.616;12.872;2022-12-22T11:30:06;5.77;;;2.00;;
7683;SDS011;3884;48.616;12.872;2022-12-22T11:32:42;4.63;;;1.90;;
7683;SDS011;3884;48.616;12.872;2022-12-22T11:35:25;7.30;;;2.50;;
7683;SDS011;3884;48.616;12.872;2022-12-22T11:38:04;2.77;;;2.03;;
7683;SDS011;3884;48.616;12.872;2022-12-22T11:40:40;5.00;;;2.20;;
7683;SDS011;3884;48.616;12.872;2022-12-22T11:43:16;3.17;;;2.00;;
7683;SDS011;3884;48.616;12.872;2022-12-22T11:45:53;3.87;;;2.00;;
7683;SDS011;3884;48.616;12.872;2022-12-22T11:48:56;3.70;;;1.77;;
7683;SDS011;3884;48.616;12.872;2022-12-22T11:52:11;3.43;;;1.77;;
7683;SDS011;3884;48.616;12.872;2022-12-22T11:54:54;3.97;;;1.80;;
7683;SDS011;3884;48.616;12.872;2022-12-22T11:57:38;4.50;;;1.70;;
7683;SDS011;3884;48.616;12.872;2022-12-22T12:00:17;5.27;;;1.63;;
7683;SDS011;3884;48.616;12.872;2022-12-22T12:03:02;3.57;;;1.80;;
7683;SDS011;3884;48.616;12.872;2022-12-22T12:05:42;3.90;;;2.20;;
7683;SDS011;3884;48.616;12.872;2022-12-22T12:08:29;3.77;;;1.60;;
7683;SDS011;3884;48.616;12.872;2022-12-22T12:11:09;6.07;;;1.67;;
7683;SDS011;3884;48.616;12.872;2022-12-22T12:13:44;2.70;;;1.70;;
7683;SDS011;3884;48.616;12.872;2022-12-22T12:16:21;2.73;;;1.77;;
7683;SDS011;3884;48.616;12.872;2022-12-22T12:19:05;3.03;;;1.57;;
7683;SDS011;3884;48.616;12.872;2022-12-22T12:21:48;2.77;;;2.07;;
7683;SDS011;3884;48.616;12.872;2022-12-22T12:24:24;2.63;;;1.60;;
7683;SDS011;3884;48.616;12.872;2022-12-22T12:27:04;4.80;;;1.70;;
7683;SDS011;3884;48.616;12.872;2022-12-22T12:29:39;3.10;;;1.57;;
7683;SDS011;3884;48.616;12.872;2022-12-22T12:32:12;2.70;;;1.60;;
7683;SDS011;3884;48.616;12.872;2022-12-22T12:34:48;3.60;;;1.80;;
7683;SDS011;3884;48.616;12.872;2022-12-22T12:37:25;1.60;;;1.33;;
7683;SDS011;3884;48.616;12.872;2022-12-22T12:39:57;2.67;;;1.20;;
7683;SDS011;3884;48.616;12.872;2022-12-22T12:42:32;3.70;;;1.60;;
7683;SDS011;3884;48.616;12.872;2022-12-22T12:45:02;1.43;;;1.33;;
7683;SDS011;3884;48.616;12.872;2022-12-22T12:47:30;2.70;;;1.37;;
7683;SDS011;3884;48.616;12.872;2022-12-22T12:50:00;4.20;;;1.60;;
7683;SDS011;3884;48.616;12.872;2022-12-22T12:53:02;3.80;;;1.70;;
7683;SDS011;3884;48.616;12.872;2022-12-22T12:55:31;3.57;;;1.60;;
7683;SDS011;3884;48.616;12.872;2022-12-22T13:08:04;4.20;;;2.00;;
7683;SDS011;3884;48.616;12.872;2022-12-22T13:10:38;1.63;;;1.40;;
7683;SDS011;3884;48.616;12.872;2022-12-22T13:13:08;4.70;;;1.40;;
7683;SDS011;3884;48.616;12.872;2022-12-22T13:15:38;4.30;;;2.07;;
7683;SDS011;3884;48.616;12.872;2022-12-22T13:18:24;2.40;;;1.80;;
7683;SDS011;3884;48.616;12.872;2022-12-22T13:21:11;4.20;;;2.00;;
7683;SDS011;3884;48.616;12.872;2022-12-22T13:23:43;2.93;;;1.40;;
7683;SDS011;3884;48.616;12.872;2022-12-22T13:26:16;3.93;;;1.27;;
7683;SDS011;3884;48.616;12.872;2022-12-22T13:28:47;5.77;;;2.00;;
7683;SDS011;3884;48.616;12.872;2022-12-22T13:31:18;2.87;;;1.60;;
7683;SDS011;3884;48.616;12.872;2022-12-22T13:33:48;2.30;;;1.90;;
7683;SDS011;3884;48.616;12.872;2022-12-22T13:36:28;5.20;;;1.70;;
7683;SDS011;3884;48.616;12.872;2022-12-22T13:38:59;3.00;;;1.50;;
7683;SDS011;3884;48.616;12.872;2022-12-22T13:41:28;6.90;;;1.60;;
7683;SDS011;3884;48.616;12.872;2022-12-22T13:43:57;2.80;;;1.40;;
7683;SDS011;3884;48.616;12.872;2022-12-22T13:46:30;7.57;;;2.37;;
7683;SDS011;3884;48.616;12.872;2022-12-22T13:48:58;4.60;;;1.60;;
7683;SDS011;3884;48.616;12.872;2022-12-22T13:51:29;5.27;;;1.60;;
7683;SDS011;3884;48.616;12.872;2022-12-22T13:54:09;3.00;;;1.50;;
7683;SDS011;3884;48.616;12.872;2022-12-22T13:56:40;4.20;;;2.00;;
7683;SDS011;3884;48.616;12.872;2022-12-22T13:59:15;4.37;;;1.77;;
7683;SDS011;3884;48.616;12.872;2022-12-22T14:01:50;6.63;;;2.33;;
7683;SDS011;3884;48.616;12.872;2022-12-22T14:04:22;6.53;;;1.80;;
7683;SDS011;3884;48.616;12.872;2022-12-22T14:06:49;4.17;;;1.90;;
7683;SDS011;3884;48.616;12.872;2022-12-22T14:09:18;5.77;;;2.20;;
7683;SDS011;3884;48.616;12.872;2022-12-22T14:11:46;3.67;;;1.60;;
7683;SDS011;3884;48.616;12.872;2022-12-22T14:14:17;6.27;;;2.10;;
7683;SDS011;3884;48.616;12.872;2022-12-22T14:16:48;9.47;;;3.00;;
7683;SDS011;3884;48.616;12.872;2022-12-22T14:19:16;8.97;;;2.03;;
7683;SDS011;3884;48.616;12.872;2022-12-22T14:21:45;6.93;;;2.10;;
7683;SDS011;3884;48.616;12.872;2022-12-22T14:24:18;4.30;;;2.03;;
7683;SDS011;3884;48.616;12.872;2022-12-22T14:26:49;5.87;;;2.50;;
7683;SDS011;3884;48.616;12.872;2022-12-22T14:29:19;5.40;;;1.90;;
7683;SDS011;3884;48.616;12.872;2022-12-22T14:31:49;6.03;;;1.83;;
7683;SDS011;3884;48.616;12.872;2022-12-22T14:34:26;4.97;;;1.90;;
7683;SDS011;3884;48.616;12.872;2022-12-22T14:36:55;7.80;;;2.53;;
7683;SDS011;3884;48.616;12.872;2022-12-22T14:39:25;5.37;;;2.10;;
7683;SDS011;3884;48.616;12.872;2022-12-22T14:41:55;11.73;;;5.23;;
7683;SDS011;3884;48.616;12.872;2022-12-22T14:44:24;4.13;;;2.20;;
7683;SDS011;3884;48.616;12.872;2022-12-22T14:49:50;8.00;;;2.70;;
7683;SDS011;3884;48.616;12.872;2022-12-22T14:52:21;8.90;;;2.87;;
7683;SDS011;3884;48.616;12.872;2022-12-22T14:54:55;6.50;;;2.23;;
7683;SDS011;3884;48.616;12.872;2022-12-22T14:57:26;6.97;;;2.40;;
7683;SDS011;3884;48.616;12.872;2022-12-22T14:59:56;8.80;;;2.40;;
7683;SDS011;3884;48.616;12.872;2022-12-22T15:02:26;7.07;;;2.60;;
7683;SDS011;3884;48.616;12.872;2022-12-22T15:05:15;8.23;;;3.00;;
7683;SDS011;3884;48.616;12.872;2022-12-22T15:07:51;7.33;;;3.20;;
7683;SDS011;3884;48.616;12.872;2022-12-22T15:10:20;8.33;;;3.40;;
7683;SDS011;3884;48.616;12.872;2022-12-22T15:12:48;8.43;;;3.80;;
7683;SDS011;3884;48.616;12.872;2022-12-22T15:15:23;8.07;;;3.43;;
7683;SDS011;3884;48.616;12.872;2022-12-22T15:17:51;12.97;;;6.47;;
7683;SDS011;3884;48.616;12.872;2022-12-22T15:20:20;27.20;;;11.10;;
7683;SDS011;3884;48.616;12.872;2022-12-22T15:22:48;25.80;;;10.50;;
7683;SDS011;3884;48.616;12.872;2022-12-22T15:25:16;11.27;;;5.80;;
7683;SDS011;3884;48.616;12.872;2022-12-22T15:27:47;10.23;;;3.33;;
7683;SDS011;3884;48.616;12.872;2022-12-22T15:30:15;6.63;;;3.17;;
7683;SDS011;3884;48.616;12.872;2022-12-22T15:32:44;8.93;;;2.83;;
7683;SDS011;3884;48.616;12.872;2022-12-22T15:35:15;5.00;;;2.40;;
7683;SDS011;3884;48.616;12.872;2022-12-22T15:37:44;5.67;;;2.43;;